Terminal Aerodrome Forecast
Issued by NWS Wakefield, VA

Home | Current Version | Previous Version | Text Only | Print | Product List | Glossary On
Versions: 1 2 3 4 5 6 7 8 9 10 11 12 13 14 15 16 17 18 19 20 21 22 23 24 25 26 27 28 29 30
000
FTUS41 KAKQ 250800 AAB
TAFSBY
TAF AMD
KSBY 250832Z 2509/2606 22010KT P6SM SCT020 BKN050
      TEMPO 2509/2511 5SM -RA
     FM251300 27011G20KT P6SM SCT020 BKN080
     FM251500 30012G25KT P6SM SCT050 SCT250=

USA.gov is the U.S. government's official web portal to all federal, state and local government web resources and services.